DW8618 Nerja ES current weather conditions

sailwx.info

Wind from 306 at 17 knots gusting 34

Air temperature 15.6° C
Dewpoint 1.6° C

Last reported at 2015-Jan-31 16:45 UTC.
Time now 2015-Jan-31 17:48 UTC

Location: N 36°46' W 003°52'.
View on Google Maps.

See reports from other nearby stations

  
Tides and Currents Weather Stations Pressure Air Temp Water Temp Dewpoint Dewpoint Depression Visibility Wind Speed Wind Dir Waves Ship Positions
date/time (UTC)wind fromknots sea level pressurealtimeterstation pressurevisibilityair tempwater tempwave heightnotes
2015-Jan-31 16:45 306 17 gusting 34 15.6
2015-Jan-31 16:30 263 10 gusting 24 16.1
2015-Jan-31 16:16 278 13 gusting 29 16.1
2015-Jan-31 16:01 261 14 gusting 31 16.1
2015-Jan-31 15:45 265 14 gusting 26 16.1
2015-Jan-31 15:30 286 14 gusting 26 16.7
2015-Jan-31 15:15 303 11 gusting 29 16.7
2015-Jan-31 15:01 275 12 gusting 30 16.7
2015-Jan-31 14:46 296 13 gusting 32 17.2
2015-Jan-31 14:31 317 15 gusting 26 17.2
2015-Jan-31 14:15 230 13 gusting 28 17.2
2015-Jan-31 14:01 279 16 gusting 36 17.2
2015-Jan-31 13:46 295 17 gusting 32 17.2
2015-Jan-31 13:30 296 15 gusting 27 17.2
2015-Jan-31 13:16 302 10 gusting 25 17.8
2015-Jan-31 13:01 309 11 gusting 27 17.2
2015-Jan-31 12:45 312 18 gusting 31 16.1
2015-Jan-31 12:31 260 17 gusting 32 16.7
2015-Jan-31 12:15 273 15 gusting 31 16.7
2015-Jan-31 12:01 290 14 gusting 26 17.8
2015-Jan-31 11:45 277 18 gusting 29 17.2
2015-Jan-31 11:30 291 16 gusting 33 16.7
2015-Jan-31 11:15 311 18 gusting 33 17.2
2015-Jan-31 11:01 292 15 gusting 31 18.9
2015-Jan-31 10:45 288 17 gusting 38 18.3
2015-Jan-31 10:30 267 17 gusting 30 18.3
2015-Jan-31 10:16 289 16 gusting 31 17.8
2015-Jan-31 10:01 281 15 gusting 31 17.8
2015-Jan-31 09:45 282 18 gusting 35 17.8
2015-Jan-31 09:30 275 11 gusting 30 17.2
2015-Jan-31 09:16 275 13 gusting 23 17.2
2015-Jan-31 09:01 273 12 gusting 31 16.7
2015-Jan-31 08:45 280 13 gusting 25 15.6
2015-Jan-31 08:31 267 6 gusting 18 15.0
2015-Jan-31 08:15 265 9 gusting 23 15.0
2015-Jan-31 08:01 300 10 gusting 21 15.0
2015-Jan-31 07:45 277 9 gusting 20 15.6
2015-Jan-31 07:31 286 11 gusting 21 15.6
2015-Jan-31 07:15 252 9 gusting 21 16.1
2015-Jan-31 07:01 348 11 gusting 24 16.1
2015-Jan-31 06:45 267 8 gusting 14 16.1
2015-Jan-31 06:30 266 11 gusting 19 16.7
2015-Jan-31 06:16 288 9 gusting 21 16.7
2015-Jan-31 06:01 249 7 gusting 19 17.2
2015-Jan-31 05:46 267 13 gusting 26 16.7
2015-Jan-31 05:30 282 13 gusting 24 16.7
2015-Jan-31 05:15 305 15 gusting 27 16.7
2015-Jan-31 05:01 272 14 gusting 31 16.7
2015-Jan-31 04:46 284 12 gusting 26 16.7
2015-Jan-31 04:30 288 12 gusting 26 16.1
2015-Jan-31 04:15 276 10 gusting 26 16.1
2015-Jan-31 04:01 309 14 gusting 25 16.1
2015-Jan-31 03:45 279 11 gusting 22 16.1
2015-Jan-31 03:30 309 14 gusting 26 16.1
2015-Jan-31 03:15 266 15 gusting 27 16.1
2015-Jan-31 03:01 281 11 gusting 23 16.7
2015-Jan-31 02:46 317 12 gusting 20 16.7
2015-Jan-31 02:30 250 4 gusting 18 16.7
2015-Jan-31 02:15 321 6 gusting 19 16.7
2015-Jan-31 02:01 280 7 gusting 19 16.7
2015-Jan-31 01:45 310 7 gusting 16 17.2
2015-Jan-31 01:31 235 8 gusting 18 17.2
2015-Jan-31 01:15 290 9 gusting 19 17.2
2015-Jan-31 01:01 259 7 gusting 18 17.2
2015-Jan-31 00:46 292 13 gusting 22 17.2
2015-Jan-31 00:30 299 6 gusting 18 17.2
2015-Jan-31 00:15 312 7 gusting 28 17.2
2015-Jan-31 00:01 253 10 gusting 25 17.2
2015-Jan-30 23:45 292 11 gusting 26 16.7
2015-Jan-30 23:31 281 7 gusting 22 16.7
2015-Jan-30 23:15 246 9 gusting 23 16.7
2015-Jan-30 23:01 258 13 gusting 23 16.7
2015-Jan-30 22:46 292 7 gusting 25 16.7
2015-Jan-30 22:30 200 13 gusting 26 16.7
2015-Jan-30 22:16 305 12 gusting 29 16.7
2015-Jan-30 22:01 291 9 gusting 22 16.7
2015-Jan-30 21:45 270 9 gusting 19 17.2
2015-Jan-30 21:31 261 13 gusting 28 17.2
2015-Jan-30 21:15 303 9 gusting 26 17.2
2015-Jan-30 21:01 259 13 gusting 25 17.2
2015-Jan-30 20:46 252 14 gusting 28 17.2
2015-Jan-30 20:31 284 11 gusting 29 17.8
2015-Jan-30 20:15 263 11 gusting 29 17.8
2015-Jan-30 20:01 215 7 gusting 25 17.8
2015-Jan-30 19:45 257 8 gusting 24 17.8
2015-Jan-30 19:30 315 13 gusting 23 17.8
2015-Jan-30 19:15 223 11 gusting 22 17.2
2015-Jan-30 19:01 275 12 gusting 22 17.2
2015-Jan-30 18:45 257 9 gusting 24 17.2
2015-Jan-30 18:30 289 11 gusting 24 17.2
2015-Jan-30 18:16 269 6 gusting 25 17.2
2015-Jan-30 18:01 275 9 gusting 26 17.2
2015-Jan-30 17:46 286 13 gusting 25 17.2
2015-Jan-30 17:30 285 13 gusting 23 17.8
2015-Jan-30 17:15 297 13 gusting 27 17.8
2015-Jan-30 17:01 266 13 gusting 28 17.8
2015-Jan-30 16:45 237 12 gusting 25 17.8
2015-Jan-30 16:30 296 12 gusting 24 17.8
2015-Jan-30 16:16 262 15 gusting 28 17.8
2015-Jan-30 16:01 286 11 gusting 28 17.8
2015-Jan-30 15:45 275 13 gusting 27 17.8
2015-Jan-30 15:30 269 17 gusting 30 17.8
2015-Jan-30 15:16 290 17 gusting 29 17.8
2015-Jan-30 15:01 289 13 gusting 28 18.3
2015-Jan-30 14:45 306 11 gusting 27 18.9
2015-Jan-30 14:30 240 15 gusting 28 18.9
2015-Jan-30 14:15 296 13 gusting 22 19.4
2015-Jan-30 14:01 267 7 gusting 21 19.4
2015-Jan-30 13:45 265 13 gusting 24 19.4
2015-Jan-30 13:31 232 13 gusting 26 19.4
2015-Jan-30 13:15 275 12 gusting 20 20.0
2015-Jan-30 13:01 277 7 gusting 22 19.4
2015-Jan-30 12:45 265 13 gusting 24 19.4
2015-Jan-30 12:30 249 11 gusting 28 19.4
2015-Jan-30 12:16 298 6 gusting 19 19.4
2015-Jan-30 12:01 294 9 gusting 19 20.0
2015-Jan-30 11:46 250 9 gusting 19 20.0
2015-Jan-30 11:30 286 8 gusting 16 20.0
2015-Jan-30 11:16 204 5 gusting 14 19.4
2015-Jan-30 11:01 234 3 gusting 14 18.9
2015-Jan-30 10:45 212 5 gusting 14 18.3
2015-Jan-30 10:31 225 2 gusting 12 17.8
2015-Jan-30 10:15 184 6 gusting 13 17.8
2015-Jan-30 10:01 231 5 gusting 18 17.8
2015-Jan-30 09:45 203 6 gusting 16 16.1
2015-Jan-30 09:30 241 6 gusting 15 15.6
2015-Jan-30 09:15 250 2 gusting 10 16.1
2015-Jan-30 09:01 200 3 gusting 13 16.1
2015-Jan-30 08:45 223 4 gusting 16 15.6
2015-Jan-30 08:30 285 6 gusting 17 15.6
2015-Jan-30 08:16 250 6 gusting 14 15.6
2015-Jan-30 08:01 257 2 gusting 10 15.0
2015-Jan-30 07:46 232 0 gusting 8 15.0
2015-Jan-30 07:30 269 2 gusting 8 14.4
2015-Jan-30 07:15 313 14.4
2015-Jan-30 07:01 280 3 gusting 11 14.4
2015-Jan-30 06:45 283 2 gusting 13 15.0
2015-Jan-30 06:31 217 15.0
2015-Jan-30 06:16 267 4 gusting 11 15.6
2015-Jan-30 06:01 227 6 gusting 13 15.6
2015-Jan-30 05:45 302 0 gusting 12 15.0
2015-Jan-30 05:30 296 15.0
2015-Jan-30 05:15 258 1 gusting 8 14.4
2015-Jan-30 05:01 252 2 gusting 10 15.0
2015-Jan-30 04:45 258 0 gusting 14 15.0
2015-Jan-30 04:30 272 6 gusting 14 15.0
2015-Jan-30 04:16 288 8 gusting 24 15.0
2015-Jan-30 04:01 241 7 gusting 19 15.0
2015-Jan-30 03:45 248 6 gusting 14 15.6
2015-Jan-30 03:30 280 2 gusting 12 15.6
2015-Jan-30 03:16 293 6 gusting 13 15.6
2015-Jan-30 03:01 314 6 gusting 18 15.6
2015-Jan-30 02:46 302 10 gusting 19 16.1
2015-Jan-30 02:30 286 9 gusting 16 16.1
2015-Jan-30 02:15 289 8 gusting 18 16.1
2015-Jan-30 02:01 289 12 gusting 24 16.1
2015-Jan-30 01:45 301 13 gusting 22 16.7
2015-Jan-30 01:31 290 8 gusting 20 16.1
2015-Jan-30 01:15 264 9 gusting 17 16.1
2015-Jan-30 01:01 261 9 gusting 19 15.6
2015-Jan-30 00:45 265 8 gusting 18 15.6
2015-Jan-30 00:30 282 10 gusting 18 15.6
2015-Jan-30 00:16 250 6 gusting 16 15.6
2015-Jan-30 00:01 246 9 gusting 19 16.1
2015-Jan-29 23:46 249 7 gusting 19 16.1
2015-Jan-29 23:30 279 10 gusting 22 16.1
2015-Jan-29 23:15 278 13 gusting 25 15.6
2015-Jan-29 23:01 297 11 gusting 19 15.6
2015-Jan-29 22:45 280 10 gusting 19 15.6
2015-Jan-29 22:31 303 9 gusting 17 15.6
2015-Jan-29 22:15 257 8 gusting 21 15.6
2015-Jan-29 22:01 293 6 gusting 17 15.6
2015-Jan-29 21:45 275 6 gusting 16 15.6
2015-Jan-29 21:31 255 6 gusting 14 15.6
2015-Jan-29 21:15 292 8 gusting 19 15.6
2015-Jan-29 21:01 283 4 gusting 13 16.1
2015-Jan-29 20:45 279 5 gusting 13 16.1
2015-Jan-29 20:30 303 3 gusting 9 16.1
2015-Jan-29 20:15 253 4 gusting 12 16.1
2015-Jan-29 20:01 290 3 gusting 8 16.1
2015-Jan-29 19:45 301 2 gusting 11 16.1
2015-Jan-29 19:31 257 15.6
2015-Jan-29 19:15 285 0 gusting 13 16.1
2015-Jan-29 19:01 313 2 gusting 19 16.1
2015-Jan-29 18:45 355 9 gusting 16 16.1
2015-Jan-29 18:30 311 8 gusting 15 16.1
2015-Jan-29 18:16 342 0 gusting 13 16.1
2015-Jan-29 18:01 355 1 gusting 8 16.1
2015-Jan-29 17:45 005 4 gusting 13 16.1
2015-Jan-29 17:30 350 6 gusting 15 16.7
2015-Jan-29 17:15 011 3 gusting 9 17.2
2015-Jan-29 17:01 306 6 gusting 12 17.2